クライストチャーチ国際空港の過去48時間の天気

クライストチャーチ国際空港 (Christchurch)

現在時刻: 6/15 23:57 NZST (6/15 11:57 UTC) 以下の時間は現地時間です。

過去48時間のMETAR気象情報
時間 風向 風速(m/s) 視程 気温(℃) 湿度(%) 気圧(hPa) 天気現象
15 23:30 西南西 5 1800m 9 100 1008 もや
15 23:00 西南西 5 2800m 9 100 1008 もや
15 22:30 南西 5 3000m 9 100 1007 もや
15 22:00 南西 6 1600m 9 100 1007 もや
15 21:30 南西 6 1000m 9 100 1007 散在した霧
15 21:00 南西 5 600m 9 100 1007
15 20:30 南西 5 300m 9 100 1007
15 20:00 南南西 4 5000m 9 100 1006 もや
15 19:30 南西 5 8000m 9 93 1006
15 19:00 南西 4 10km以上 9 93 1006
15 18:30 西南西 2 10km以上 9 93 1005
15 18:00 東南東 1 10km以上 10 94 1005
15 17:30 東北東 1 10km以上 10 94 1005
15 17:00 南東 2 10km以上 11 94 1004
15 16:30 北東 2 9000m 11 94 1004
15 16:00 北東 2 10km以上 12 94 1004
15 15:30 東北東 2 10km以上 11 94 1004
15 15:00 東北東 1 10km以上 11 94 1004
15 14:30 1 10km以上 11 94 1005
15 14:00 北北東 1 10km以上 10 94 1005
15 13:30 北東 1 10km以上 10 94 1005
15 13:00 北北東 1 10km以上 10 94 1005
15 12:30 北東 1 10km以上 9 100 1006 周辺で霧
15 12:00 1 10km以上 8 100 1006
15 11:30 北北東 2 7000m 8 100 1007 周辺で霧
15 11:00 北北東 2 8000m 7 100 1006
15 10:30 北東 1 800m 7 100 1006
15 10:00 北東 2 400m 7 100 1006
15 09:30 北東 1 200m 6 100 1006
15 09:00 2 150m 6 100 1006
15 08:30 北北東 2 100m 6 100 1006
15 08:00 北北東 2 100m 6 100 1006
15 07:30 北東 2 150m 6 100 1006
NZCH 151130Z AUTO 24010KT 1800 BR OVC002/// 09/09 Q1008 TEMPO 0500 FG
NZCH 151100Z AUTO 24010KT 2800 BR OVC002/// 09/09 Q1008 TEMPO 0500 FG
NZCH 151030Z AUTO 23009KT 3000 BR OVC002/// 09/09 Q1007 BECMG 0500 FG
NZCH 151000Z AUTO 22012KT 1600 BR OVC002/// 09/09 Q1007 BECMG 0500 FG
NZCH 150930Z AUTO 22012KT 1000 R02/P2000N R20/P2000N BCFG VV002 09/09 Q1007 BECMG 0500 FG
NZCH 150900Z AUTO 23009KT 0600 R02/P2000N R20/P2000N FG VV002 09/09 Q1007 NOSIG
NZCH 150830Z AUTO 22009KT 0300 R02/0900N R20/1200D FG VV002 09/09 Q1007 NOSIG
NZCH 150800Z AUTO 20008KT 5000 BR BKN002/// 09/09 Q1006 BECMG 0400 FG
NZCH 150730Z AUTO 22009KT 8000 NCD 09/08 Q1006 BECMG 0400 FG BKN004
NZCH 150700Z AUTO 22007KT 9999 NCD 09/08 Q1006 BECMG 0400 FG BKN004
NZCH 150630Z AUTO 24003KT 9999 FEW100/// 09/08 Q1005
NZCH 150600Z AUTO 12001KT 9999 NCD 10/09 Q1005 BECMG FM0600 0400 FG BKN004
NZCH 150530Z AUTO 07001KT 9999 NCD 10/09 Q1005 BECMG FM0600 0400 FG BKN004
NZCH 150500Z AUTO 14004KT 9999 NCD 11/10 Q1004 BECMG FM0600 0400 FG BKN004
NZCH 150430Z AUTO 04003KT 9000 NCD 11/10 Q1004 BECMG FM0600 0400 FG BKN004
NZCH 150400Z AUTO 05003KT 9999 NCD 12/11 Q1004 NOSIG
NZCH 150330Z AUTO 07003KT 9999 NCD 11/10 Q1004 NOSIG
NZCH 150300Z AUTO 06002KT 9999 NCD 11/10 Q1004 NOSIG
NZCH 150230Z AUTO 36001KT 9999 NCD 11/10 Q1005 NOSIG
NZCH 150200Z AUTO 03002KT 9999 NCD 10/09 Q1005 NOSIG
NZCH 150130Z AUTO 04002KT 9999 NCD 10/09 Q1005 NOSIG
NZCH 150100Z AUTO 02001KT 9999 SCT100/// 10/09 Q1005 NOSIG
NZCH 150030Z AUTO 05001KT 9999 VCFG NCD 09/09 Q1006 NOSIG
NZCH 150000Z AUTO 09001KT 9999 FEW002/// BKN100/// 08/08 Q1006 BECMG 9999
NZCH 142330Z AUTO 03004KT 7000 VCFG FEW002/// SCT090/// OVC100/// 08/08 Q1007 BECMG 9999
NZCH 142300Z AUTO 03003KT 8000 FEW001/// OVC100/// 07/07 Q1006 BECMG 9999
NZCH 142230Z AUTO 05002KT 0800 R02/0800U R20/1500U FG VV002 07/07 Q1006 BECMG 9999 NSW FEW002
NZCH 142200Z AUTO 05003KT 0400 R02/0700U R20/0450N FG VV002 07/07 Q1006 BECMG 9999 NSW FEW002
NZCH 142130Z AUTO 04002KT 0200 R02/0350N R20/0450N FG VV002 06/06 Q1006 BECMG 9999 NSW FEW002
NZCH 142100Z AUTO 36003KT 0150 R02/0300N R20/0350N FG VV002 06/06 Q1006 BECMG FM2200 9999 NSW FEW002
NZCH 142030Z AUTO 02003KT 0100 R02/0325N R20/0400N FG VV002 06/06 Q1006 BECMG FM2200 9999 NSW FEW002
NZCH 142000Z AUTO 02003KT 0100 R20/0550N FG VV002 06/06 Q1006 NOSIG
NZCH 141930Z AUTO 05003KT 0150 R02/0600U R20/0550N FG VV002 06/06 Q1006 NOSIG